createdAt,value
2022-12-11T00:00:48.466Z,20.15
2022-12-11T00:03:17.084Z,20.98
2022-12-11T00:05:44.536Z,22.42
2022-12-11T00:08:11.819Z,19.10
2022-12-11T00:10:38.438Z,21.02
2022-12-11T00:13:04.985Z,19.60
2022-12-11T00:15:31.565Z,19.30
2022-12-11T00:17:58.050Z,20.88
2022-12-11T00:20:24.724Z,20.48
2022-12-11T00:22:51.236Z,20.80
2022-12-11T00:25:17.705Z,20.13
2022-12-11T00:27:46.705Z,22.73
2022-12-11T00:30:13.920Z,21.00
2022-12-11T00:32:40.658Z,19.20
2022-12-11T00:35:07.282Z,19.73
2022-12-11T00:37:33.859Z,21.80
2022-12-11T00:40:00.404Z,20.33
2022-12-11T00:42:26.841Z,20.60
2022-12-11T00:44:54.836Z,21.17
2022-12-11T00:47:21.254Z,20.52
2022-12-11T00:49:49.947Z,21.38
2022-12-11T00:52:17.833Z,21.23
2022-12-11T00:54:44.604Z,21.65
2022-12-11T00:57:11.032Z,22.85
2022-12-11T00:59:38.332Z,21.25
2022-12-11T01:02:04.752Z,23.10
2022-12-11T01:04:31.138Z,20.33
2022-12-11T01:06:58.009Z,21.50
2022-12-11T01:09:42.906Z,20.48
2022-12-11T01:12:09.340Z,20.02
2022-12-11T01:14:35.790Z,22.77
2022-12-11T01:17:02.319Z,22.35
2022-12-11T01:19:28.805Z,22.02
2022-12-11T01:21:55.256Z,22.38
2022-12-11T01:24:21.677Z,22.55
2022-12-11T01:26:48.096Z,22.92
2022-12-11T01:29:14.479Z,22.98
2022-12-11T01:31:41.296Z,24.27
2022-12-11T01:34:07.698Z,23.35
2022-12-11T01:36:34.137Z,21.52
2022-12-11T01:39:00.596Z,23.65
2022-12-11T01:41:26.979Z,24.02
2022-12-11T01:44:00.635Z,23.77
2022-12-11T01:46:27.506Z,25.33
2022-12-11T01:48:54.442Z,24.02
2022-12-11T01:51:21.577Z,22.88
2022-12-11T01:54:01.102Z,22.42
2022-12-11T01:56:29.497Z,21.63
2022-12-11T01:58:59.755Z,24.23
2022-12-11T02:03:55.845Z,21.33
2022-12-11T02:06:39.649Z,22.10
2022-12-11T02:09:13.878Z,21.83
2022-12-11T02:12:07.658Z,24.38
2022-12-11T02:14:45.032Z,23.25
2022-12-11T02:17:32.488Z,21.65
2022-12-11T02:20:16.160Z,21.15
2022-12-11T02:23:03.946Z,21.63
2022-12-11T02:25:48.662Z,22.08
2022-12-11T02:28:38.326Z,21.00
2022-12-11T02:31:32.120Z,23.52
2022-12-11T02:34:41.453Z,22.00
2022-12-11T02:37:13.428Z,20.27
2022-12-11T02:39:40.876Z,18.77
2022-12-11T02:42:08.135Z,21.40
2022-12-11T02:44:34.971Z,20.42
2022-12-11T02:47:03.359Z,21.50
2022-12-11T02:49:31.199Z,22.48
2022-12-11T02:51:58.104Z,20.73
2022-12-11T02:54:30.942Z,21.05
2022-12-11T02:57:02.248Z,20.70
2022-12-11T02:59:34.672Z,20.92
2022-12-11T03:02:01.487Z,20.90
2022-12-11T03:04:28.873Z,21.05
2022-12-11T03:06:59.887Z,20.58
2022-12-11T03:09:27.921Z,21.05
2022-12-11T03:11:54.434Z,19.63
2022-12-11T03:14:20.876Z,19.10
2022-12-11T03:17:19.555Z,21.02
2022-12-11T03:19:48.330Z,19.10
2022-12-11T03:22:27.698Z,18.85
2022-12-11T03:25:03.982Z,18.77
2022-12-11T03:27:34.190Z,20.02
2022-12-11T03:30:06.165Z,20.80
2022-12-11T03:32:39.191Z,19.02
2022-12-11T03:35:11.700Z,17.85
2022-12-11T03:37:40.726Z,19.92
2022-12-11T03:40:11.449Z,18.73
2022-12-11T03:42:38.851Z,16.05
2022-12-11T03:45:06.515Z,15.23
2022-12-11T03:47:33.282Z,14.63
2022-12-11T03:49:59.923Z,15.60
2022-12-11T03:52:27.531Z,15.55
2022-12-11T03:54:54.946Z,15.30
2022-12-11T03:57:22.605Z,14.73
2022-12-11T03:59:49.916Z,14.35
2022-12-11T04:02:16.392Z,14.68
2022-12-11T04:04:43.140Z,13.90
2022-12-11T04:07:09.587Z,14.82
2022-12-11T04:09:36.470Z,14.40
2022-12-11T04:12:03.032Z,15.50
2022-12-11T04:14:48.095Z,14.07
2022-12-11T04:17:34.504Z,14.50
2022-12-11T04:20:19.520Z,14.05
2022-12-11T04:23:04.615Z,14.70
2022-12-11T04:25:31.025Z,14.38
2022-12-11T04:27:57.440Z,14.57
2022-12-11T04:30:29.346Z,15.38
2022-12-11T04:32:58.886Z,14.80
2022-12-11T04:35:25.308Z,14.57
2022-12-11T04:37:52.646Z,15.43
2022-12-11T04:40:20.071Z,15.70
2022-12-11T04:42:46.487Z,15.07
2022-12-11T04:45:13.560Z,14.73
2022-12-11T04:47:41.057Z,14.18
2022-12-11T04:50:09.343Z,14.23
2022-12-11T04:52:35.776Z,13.57
2022-12-11T04:55:04.835Z,13.88
2022-12-11T04:57:31.195Z,13.85
2022-12-11T04:59:57.608Z,13.30
2022-12-11T05:02:24.193Z,13.55
2022-12-11T05:04:50.645Z,13.77
2022-12-11T05:07:17.019Z,13.73
2022-12-11T05:09:43.575Z,13.85
2022-12-11T05:12:09.995Z,13.60
2022-12-11T05:14:36.418Z,13.40
2022-12-11T05:17:02.838Z,13.50
2022-12-11T05:19:29.299Z,14.02
2022-12-11T05:21:55.678Z,14.77
2022-12-11T05:24:22.044Z,14.48
2022-12-11T05:26:48.424Z,14.70
2022-12-11T05:29:14.842Z,14.25
2022-12-11T05:31:41.460Z,15.07
2022-12-11T05:34:08.118Z,15.25
2022-12-11T05:36:34.835Z,14.95
2022-12-11T05:39:01.825Z,15.05
2022-12-11T05:41:29.987Z,15.82
2022-12-11T05:43:56.479Z,15.43
2022-12-11T05:46:25.247Z,16.48
2022-12-11T05:48:55.004Z,15.55
2022-12-11T05:51:21.831Z,16.95
2022-12-11T05:53:50.035Z,16.48
2022-12-11T05:56:38.777Z,14.93
2022-12-11T05:59:06.622Z,14.98
2022-12-11T06:01:38.820Z,17.15
2022-12-11T06:04:06.202Z,15.35
2022-12-11T06:06:33.140Z,16.17
2022-12-11T06:09:00.504Z,16.45
2022-12-11T06:11:28.527Z,16.35
2022-12-11T06:13:55.191Z,16.33
2022-12-11T06:16:22.182Z,16.90
2022-12-11T06:18:48.604Z,16.20
2022-12-11T06:21:17.278Z,16.65
2022-12-11T06:23:44.944Z,14.25
2022-12-11T06:26:11.781Z,16.67
2022-12-11T06:28:38.255Z,16.70
2022-12-11T06:31:04.855Z,16.95
2022-12-11T06:33:31.784Z,17.23
2022-12-11T06:36:05.754Z,16.23
2022-12-11T06:38:32.139Z,15.93
2022-12-11T06:41:00.235Z,16.60
2022-12-11T06:43:26.786Z,15.88
2022-12-11T06:45:53.250Z,16.33
2022-12-11T06:48:20.272Z,16.48
2022-12-11T06:50:46.864Z,16.88
2022-12-11T06:53:15.892Z,16.13
2022-12-11T06:55:42.715Z,15.45
2022-12-11T06:58:09.680Z,16.67
2022-12-11T07:00:36.615Z,14.95
2022-12-11T07:03:03.927Z,14.93
2022-12-11T07:05:31.278Z,16.63
2022-12-11T07:07:58.087Z,16.83
2022-12-11T07:10:26.207Z,15.13
2022-12-11T07:12:53.615Z,16.27
2022-12-11T07:15:20.051Z,15.10
2022-12-11T07:17:46.436Z,15.82
2022-12-11T07:20:12.919Z,17.13
2022-12-11T07:22:44.660Z,16.83
2022-12-11T07:25:13.292Z,16.13
2022-12-11T07:27:40.166Z,16.55
2022-12-11T07:30:07.212Z,17.13
2022-12-11T07:32:33.767Z,16.58
2022-12-11T07:35:00.259Z,16.38
2022-12-11T07:37:26.707Z,16.13
2022-12-11T07:39:53.166Z,15.73
2022-12-11T07:42:19.601Z,17.73
2022-12-11T07:44:45.977Z,16.40
2022-12-11T07:47:12.395Z,16.70
2022-12-11T07:49:38.832Z,17.55
2022-12-11T07:52:05.298Z,17.05
2022-12-11T07:54:31.667Z,15.65
2022-12-11T07:56:58.086Z,17.42
2022-12-11T07:59:24.542Z,16.63
2022-12-11T08:01:51.025Z,19.17
2022-12-11T08:04:17.431Z,16.77
2022-12-11T08:06:43.899Z,16.63
2022-12-11T08:09:17.430Z,17.75
2022-12-11T08:11:49.342Z,16.02
2022-12-11T08:14:15.722Z,17.60
2022-12-11T08:16:44.135Z,17.88
2022-12-11T08:19:14.934Z,17.23
2022-12-11T08:21:41.479Z,17.38
2022-12-11T08:24:08.717Z,18.23
2022-12-11T08:26:35.147Z,16.88
2022-12-11T08:29:02.519Z,16.73
2022-12-11T08:31:29.740Z,17.35
2022-12-11T08:33:56.526Z,15.75
2022-12-11T08:36:23.898Z,17.00
2022-12-11T08:38:51.338Z,16.40
2022-12-11T08:41:24.108Z,15.88
2022-12-11T08:43:54.784Z,16.83
2022-12-11T08:46:25.896Z,16.88
2022-12-11T08:48:52.661Z,16.88
2022-12-11T08:51:20.935Z,17.60
2022-12-11T08:53:47.398Z,17.48
2022-12-11T08:56:15.832Z,16.27
2022-12-11T08:58:43.249Z,17.27
2022-12-11T09:01:21.448Z,18.33
2022-12-11T09:03:48.803Z,15.25
2022-12-11T09:06:18.095Z,18.25
2022-12-11T09:08:51.724Z,18.67
2022-12-11T09:11:21.733Z,18.27
2022-12-11T09:13:48.308Z,18.77
2022-12-11T09:16:16.963Z,17.15
2022-12-11T09:18:45.400Z,16.83
2022-12-11T09:21:14.767Z,18.17
2022-12-11T09:23:41.408Z,17.67
2022-12-11T09:26:12.315Z,17.85
2022-12-11T09:28:44.397Z,16.48
2022-12-11T09:31:15.530Z,16.70
2022-12-11T09:33:42.078Z,17.55
2022-12-11T09:36:08.932Z,19.05
2022-12-11T09:38:36.495Z,18.10
2022-12-11T09:41:20.804Z,16.98
2022-12-11T09:44:15.246Z,17.83
2022-12-11T09:46:42.649Z,17.58
2022-12-11T09:49:27.587Z,17.38
2022-12-11T09:52:21.431Z,17.83
2022-12-11T09:54:54.905Z,16.77
2022-12-11T09:57:35.252Z,18.13
2022-12-11T10:00:10.935Z,17.02
2022-12-11T10:02:59.210Z,18.27
2022-12-11T10:06:20.990Z,18.38
2022-12-11T10:08:57.301Z,16.83
2022-12-11T10:12:02.971Z,16.65
2022-12-11T10:14:43.786Z,14.65
2022-12-11T10:17:13.471Z,17.30
2022-12-11T10:19:41.373Z,16.13
2022-12-11T10:22:18.013Z,16.63
2022-12-11T10:27:40.292Z,18.67
2022-12-11T10:30:12.925Z,17.42
2022-12-11T10:33:08.562Z,16.10
2022-12-11T10:35:59.050Z,16.98
2022-12-11T10:38:29.574Z,17.55
2022-12-11T10:40:59.323Z,16.20
2022-12-11T10:43:42.425Z,15.98
2022-12-11T10:46:21.078Z,16.63
2022-12-11T10:48:55.955Z,16.60
2022-12-11T10:51:25.299Z,17.15
2022-12-11T10:53:53.699Z,16.23
2022-12-11T10:56:31.696Z,16.60
2022-12-11T10:58:59.048Z,16.08
2022-12-11T11:01:27.917Z,16.38
2022-12-11T11:04:06.687Z,15.05
2022-12-11T11:06:33.623Z,15.23
2022-12-11T11:09:01.309Z,15.65
2022-12-11T11:11:36.545Z,14.18
2022-12-11T11:14:07.920Z,15.43
2022-12-11T11:16:38.303Z,15.60
2022-12-11T11:19:05.086Z,14.65
2022-12-11T11:21:32.892Z,15.15
2022-12-11T11:23:59.427Z,15.00
2022-12-11T11:26:43.501Z,15.77
2022-12-11T11:29:32.353Z,14.10
2022-12-11T11:32:14.848Z,15.45
2022-12-11T11:34:41.515Z,13.70
2022-12-11T11:37:24.226Z,14.95
2022-12-11T11:39:53.313Z,13.95
2022-12-11T11:42:27.639Z,14.15
2022-12-11T11:45:00.016Z,14.40
2022-12-11T11:47:30.511Z,15.52
2022-12-11T11:50:06.729Z,15.07
2022-12-11T11:52:45.328Z,13.77
2022-12-11T11:55:35.432Z,13.57
2022-12-11T11:58:14.690Z,14.32
2022-12-11T12:00:41.172Z,14.75
2022-12-11T12:03:14.415Z,14.45
2022-12-11T12:05:52.099Z,14.50
2022-12-11T12:08:29.098Z,14.45
2022-12-11T12:11:05.526Z,13.88
2022-12-11T12:19:42.496Z,13.32
2022-12-11T12:22:28.042Z,12.00
2022-12-11T12:25:31.978Z,13.00
2022-12-11T12:28:17.463Z,12.73
2022-12-11T12:31:00.519Z,13.50
2022-12-11T12:33:29.789Z,12.70
2022-12-11T12:36:07.251Z,13.95
2022-12-11T12:38:47.423Z,13.32
2022-12-11T12:41:51.415Z,13.13
2022-12-11T12:44:20.289Z,13.07
2022-12-11T12:46:59.679Z,13.85
2022-12-11T12:49:49.138Z,13.23
2022-12-11T12:52:18.875Z,13.57
2022-12-11T12:55:07.733Z,12.85
2022-12-11T13:00:00.615Z,12.90
2022-12-11T13:02:27.629Z,13.32
2022-12-11T13:05:05.269Z,14.07
2022-12-11T13:07:32.660Z,13.57
2022-12-11T13:10:22.885Z,13.77
2022-12-11T13:12:49.369Z,14.57
2022-12-11T13:15:34.752Z,14.48
2022-12-11T13:18:07.082Z,14.05
2022-12-11T13:20:34.627Z,13.50
2022-12-11T13:23:07.060Z,14.02
2022-12-11T13:25:52.960Z,14.77
2022-12-11T13:28:30.166Z,13.07
2022-12-11T13:31:03.266Z,13.00
2022-12-11T13:33:30.551Z,14.32
2022-12-11T13:36:31.112Z,14.18
2022-12-11T13:39:18.788Z,12.95
2022-12-11T13:41:53.188Z,12.00
2022-12-11T13:44:25.617Z,14.82
2022-12-11T13:46:53.683Z,13.15
2022-12-11T13:49:26.790Z,17.05
2022-12-11T13:51:58.837Z,14.32
2022-12-11T13:54:28.229Z,14.57
2022-12-11T13:56:57.623Z,13.95
2022-12-11T13:59:36.055Z,13.80
2022-12-11T14:02:22.879Z,13.55
2022-12-11T14:04:52.376Z,14.73
2022-12-11T14:07:24.551Z,14.32
2022-12-11T14:09:51.152Z,14.50
2022-12-11T14:12:20.097Z,15.40
2022-12-11T14:14:55.163Z,15.75
2022-12-11T14:17:28.433Z,14.57
2022-12-11T14:19:57.203Z,16.13
2022-12-11T14:22:26.367Z,17.23
2022-12-11T14:24:55.433Z,14.38
2022-12-11T14:27:22.061Z,16.13
2022-12-11T14:29:48.891Z,15.85
2022-12-11T14:32:33.008Z,15.88
2022-12-11T14:35:02.168Z,16.20
2022-12-11T14:37:28.684Z,17.15
2022-12-11T14:40:07.100Z,15.55
2022-12-11T14:43:00.013Z,15.25
2022-12-11T14:45:39.592Z,15.38
2022-12-11T14:48:28.295Z,15.18
2022-12-11T14:50:57.820Z,15.70
2022-12-11T14:53:38.388Z,16.02
2022-12-11T14:56:13.675Z,16.67
2022-12-11T14:58:43.705Z,16.77
2022-12-11T15:01:24.491Z,17.55
2022-12-11T15:04:19.998Z,15.50
2022-12-11T15:06:48.334Z,16.77
2022-12-11T15:09:27.091Z,16.52
2022-12-11T15:11:55.983Z,16.83
2022-12-11T15:14:24.116Z,16.67
2022-12-11T15:16:51.730Z,15.35
2022-12-11T15:19:24.326Z,16.65
2022-12-11T15:21:51.200Z,17.17
2022-12-11T15:24:38.387Z,16.52
2022-12-11T15:27:05.224Z,16.63
2022-12-11T15:29:37.664Z,18.10
2022-12-11T15:32:14.115Z,17.42
2022-12-11T15:37:28.262Z,16.15
2022-12-11T15:39:56.292Z,19.83
2022-12-11T15:42:35.337Z,19.23
2022-12-11T15:45:02.867Z,17.75
2022-12-11T15:47:30.976Z,17.80
2022-12-11T15:50:00.364Z,17.50
2022-12-11T15:52:26.828Z,16.75
2022-12-11T15:54:53.267Z,17.88
2022-12-11T15:57:21.534Z,17.23
2022-12-11T15:59:52.439Z,16.30
2022-12-11T16:02:18.925Z,15.82
2022-12-11T16:04:45.398Z,16.70
2022-12-11T16:07:20.217Z,16.10
2022-12-11T16:09:47.166Z,17.02
2022-12-11T16:12:14.287Z,19.02
2022-12-11T16:14:44.950Z,17.02
2022-12-11T16:17:13.276Z,17.33
2022-12-11T16:19:40.699Z,17.67
2022-12-11T16:22:08.820Z,16.85
2022-12-11T16:24:35.880Z,17.77
2022-12-11T16:27:02.755Z,18.55
2022-12-11T16:29:29.191Z,16.58
2022-12-11T16:31:55.604Z,18.60
2022-12-11T16:34:26.698Z,17.08
2022-12-11T16:36:54.815Z,16.25
2022-12-11T16:39:21.222Z,17.35
2022-12-11T16:41:47.815Z,18.52
2022-12-11T16:44:14.278Z,17.17
2022-12-11T16:46:40.854Z,17.60
2022-12-11T16:49:07.313Z,17.08
2022-12-11T16:51:33.759Z,17.90
2022-12-11T16:54:00.200Z,18.08
2022-12-11T16:56:26.871Z,19.50
2022-12-11T16:58:53.251Z,16.02
2022-12-11T17:01:19.770Z,17.95
2022-12-11T17:03:46.560Z,17.13
2022-12-11T17:06:15.011Z,18.75
2022-12-11T17:08:42.593Z,19.90
2022-12-11T17:11:14.725Z,18.08
2022-12-11T17:13:41.594Z,18.80
2022-12-11T17:16:12.700Z,19.60
2022-12-11T17:18:39.954Z,18.48
2022-12-11T17:21:08.109Z,18.42
2022-12-11T17:23:34.897Z,18.85
2022-12-11T17:26:13.540Z,19.23
2022-12-11T17:28:40.184Z,17.77
2022-12-11T17:31:08.374Z,18.17
2022-12-11T17:33:35.380Z,18.67
2022-12-11T17:36:03.269Z,18.05
2022-12-11T17:38:29.881Z,18.45
2022-12-11T17:40:56.503Z,18.85
2022-12-11T17:46:48.681Z,19.50
2022-12-11T17:49:15.074Z,19.70
2022-12-11T17:52:18.756Z,18.65
2022-12-11T17:55:03.826Z,19.30
2022-12-11T17:57:44.530Z,16.73
2022-12-11T18:00:11.533Z,17.30
2022-12-11T18:02:52.631Z,20.83
2022-12-11T18:05:19.147Z,16.88
2022-12-11T18:07:45.606Z,16.77
2022-12-11T18:10:12.039Z,17.02
2022-12-11T19:36:13.173Z,16.27
2022-12-11T19:38:41.271Z,14.15
2022-12-11T19:41:10.468Z,15.15
2022-12-11T19:43:36.993Z,14.60
2022-12-11T19:46:06.321Z,14.57
2022-12-11T19:48:32.963Z,15.05
2022-12-11T19:51:12.527Z,15.65
2022-12-11T19:53:39.944Z,15.10
2022-12-11T19:56:06.955Z,15.43
2022-12-11T19:58:33.548Z,15.82
2022-12-11T20:01:02.759Z,15.90
2022-12-11T20:03:29.873Z,15.77
2022-12-11T20:06:05.194Z,14.55
2022-12-11T20:08:47.511Z,15.57
2022-12-11T20:11:18.455Z,15.40
2022-12-11T20:13:46.666Z,16.58
2022-12-11T20:16:14.187Z,16.17
2022-12-11T20:18:41.581Z,16.90
2022-12-11T20:21:10.297Z,16.65
2022-12-11T20:23:37.032Z,17.42
2022-12-11T20:26:15.058Z,17.02
2022-12-11T20:28:43.788Z,16.00
2022-12-11T20:31:42.376Z,17.75
2022-12-11T20:34:28.966Z,15.95
2022-12-11T20:36:56.251Z,17.05
2022-12-11T20:39:22.803Z,17.02
2022-12-11T20:41:49.864Z,16.50
2022-12-11T20:44:16.879Z,16.42
2022-12-11T20:46:43.424Z,15.48
2022-12-11T20:49:16.555Z,15.93
2022-12-11T20:51:45.349Z,16.08
2022-12-11T20:54:12.019Z,16.65
2022-12-11T20:56:38.716Z,15.43
2022-12-11T20:59:05.460Z,17.00
2022-12-11T21:01:34.897Z,16.23
2022-12-11T21:04:01.535Z,14.98
2022-12-11T21:06:36.527Z,16.25
2022-12-11T21:09:07.574Z,15.02
2022-12-11T21:11:34.500Z,15.45
2022-12-11T21:14:01.198Z,15.25
2022-12-11T21:16:28.391Z,15.75
2022-12-11T21:18:58.900Z,14.85
2022-12-11T21:21:26.187Z,14.25
2022-12-11T21:23:52.918Z,13.93
2022-12-11T21:26:20.142Z,15.32
2022-12-11T21:28:59.524Z,14.95
2022-12-11T21:31:29.758Z,13.80
2022-12-11T21:36:25.126Z,13.77
2022-12-11T21:38:51.797Z,14.70
2022-12-11T21:41:22.304Z,14.18
2022-12-11T21:46:38.460Z,13.98
2022-12-11T21:49:05.232Z,13.63
2022-12-11T21:51:45.327Z,12.40
2022-12-11T21:54:16.064Z,13.82
2022-12-11T21:56:42.869Z,14.52
2022-12-11T21:59:09.806Z,13.63
2022-12-11T22:01:41.049Z,13.30
2022-12-11T22:04:09.468Z,13.90
2022-12-11T22:06:36.269Z,13.57
2022-12-11T22:09:05.966Z,15.50
2022-12-11T22:11:34.184Z,13.77
2022-12-11T22:14:01.385Z,14.00
2022-12-11T22:16:28.617Z,13.50
2022-12-11T22:18:55.176Z,15.13
2022-12-11T22:21:24.903Z,14.38
2022-12-11T22:23:51.471Z,13.20
2022-12-11T22:26:28.768Z,14.10
2022-12-11T22:28:56.284Z,11.85
2022-12-11T22:31:26.700Z,12.40
2022-12-11T22:33:54.967Z,11.93
2022-12-11T22:36:23.392Z,11.80
2022-12-11T22:38:49.863Z,12.52
2022-12-11T22:41:22.351Z,12.15
2022-12-11T22:43:49.294Z,11.20
2022-12-11T22:46:17.036Z,12.70
2022-12-11T22:48:43.545Z,12.60
2022-12-11T22:51:12.497Z,13.27
2022-12-11T22:53:44.967Z,11.95
2022-12-11T22:56:12.799Z,12.13
2022-12-11T22:58:42.013Z,11.88
2022-12-11T23:01:14.425Z,13.02
2022-12-11T23:03:41.594Z,12.32
2022-12-11T23:06:13.545Z,12.73
2022-12-11T23:08:40.658Z,13.15
2022-12-11T23:11:18.798Z,12.40
2022-12-11T23:13:49.940Z,12.15
2022-12-11T23:16:17.054Z,14.32
2022-12-11T23:18:48.884Z,13.38
2022-12-11T23:21:19.971Z,13.18
2022-12-11T23:23:46.543Z,12.38
2022-12-11T23:26:14.551Z,12.57
2022-12-11T23:28:46.976Z,13.27
2022-12-11T23:31:16.888Z,14.30
2022-12-11T23:33:43.777Z,13.68
2022-12-11T23:36:10.816Z,13.85
2022-12-11T23:38:38.257Z,13.35
2022-12-11T23:41:12.967Z,12.85
2022-12-11T23:47:01.866Z,12.35
2022-12-11T23:49:28.471Z,13.25
2022-12-11T23:52:00.774Z,12.45
2022-12-11T23:54:27.258Z,12.15
2022-12-11T23:56:53.670Z,12.88
2022-12-11T23:59:20.127Z,12.20
